F E Warren AFB, Wyoming
Current Conditions -  °F | °C
As of 11:53 PM on Sunday 23 Nov 2014 (Local Time) from KCYS Reporting Station
Clear Clear  
Wind Chill: 12°   Ceiling: Unl
Heat Index: 24°   Visibility: 10mi
Dew Point:   Wind: 13mph
Humidity: 48%   Direction: 300°WNW
Pressure: 29.82"   Gusts: 21mph
Location:  41.13°N, 104.82°W
Report Text: KCYS 240653Z AUTO 30011G18KT 10SM CLR M04/M14 A2982 RMK AO2 PK WND 31027/0638 SLP120 T10441139 400391044
Loading
Personal Weather Stations






























Interactive Weather Map New forecast layout! Learn more

10-Day Weather Forecast

Advertisements
Track Severe Weather on mobile